Time;durP1;ratioP1;P1;durP2;ratioP2;P2;SDS_P1;SDS_P2;PMS_P1;PMS_P2;Temp;Humidity;BMP_temperature;BMP_pressure;BME280_temperature;BME280_humidity;BME280_pressure;Samples;Min_cycle;Max_cycle;Signal;HPM_P1;HPM_P2
2022/09/30 00:01:26;;;;;;;30.77;20.85;;;;;;;;;;5074627;28;20200;-67
2022/09/30 00:03:53;;;;;;;23.15;19.52;;;;;;;;;;5074466;28;20203;-67
2022/09/30 00:06:22;;;;;;;19.50;17.27;;;;;;;;;;5074594;28;20204;-67
2022/09/30 00:08:49;;;;;;;22.08;19.88;;;;;;;;;;5074844;28;20226;-67
2022/09/30 00:11:17;;;;;;;20.80;18.80;;;;;;;;;;5074262;28;20237;-67
2022/09/30 00:13:45;;;;;;;21.10;18.95;;;;;;;;;;5074949;28;20643;-67
2022/09/30 00:16:13;;;;;;;21.83;19.50;;;;;;;;;;5074142;28;20208;-67
2022/09/30 00:18:41;;;;;;;21.17;18.92;;;;;;;;;;5074261;28;20697;-67
2022/09/30 00:21:09;;;;;;;19.70;17.80;;;;;;;;;;5074650;28;20200;-67
2022/09/30 00:23:38;;;;;;;20.55;18.65;;;;;;;;;;5074336;28;20219;-67
2022/09/30 00:26:06;;;;;;;22.55;19.65;;;;;;;;;;5074194;28;20554;-67
2022/09/30 00:28:33;;;;;;;22.85;20.55;;;;;;;;;;5073869;28;20674;-66
2022/09/30 00:31:00;;;;;;;24.23;21.60;;;;;;;;;;5073978;28;20216;-66
2022/09/30 00:33:28;;;;;;;24.25;20.67;;;;;;;;;;5074214;28;20296;-66
2022/09/30 00:35:55;;;;;;;23.95;21.60;;;;;;;;;;5074242;28;20201;-67
2022/09/30 00:38:22;;;;;;;24.13;19.90;;;;;;;;;;5073857;28;20223;-67
2022/09/30 00:40:51;;;;;;;23.52;21.17;;;;;;;;;;5073884;28;20204;-67
2022/09/30 00:43:19;;;;;;;20.60;18.67;;;;;;;;;;5073938;28;20194;-67
2022/09/30 00:45:50;;;;;;;22.85;20.40;;;;;;;;;;5073488;28;20251;-67
2022/09/30 00:48:19;;;;;;;22.88;20.48;;;;;;;;;;5073520;28;20205;-67
2022/09/30 00:50:48;;;;;;;23.50;21.00;;;;;;;;;;5073448;28;20650;-67
2022/09/30 00:53:17;;;;;;;22.75;20.52;;;;;;;;;;5073841;28;20198;-67
2022/09/30 00:55:47;;;;;;;21.45;19.20;;;;;;;;;;5073902;28;20198;-67
2022/09/30 00:58:17;;;;;;;22.58;20.10;;;;;;;;;;5073509;28;20249;-66
2022/09/30 01:00:44;;;;;;;22.48;20.27;;;;;;;;;;5073518;28;20205;-67
2022/09/30 01:03:11;;;;;;;28.00;19.38;;;;;;;;;;5073244;28;20194;-66
2022/09/30 01:05:39;;;;;;;21.52;19.33;;;;;;;;;;5073211;28;20672;-68
2022/09/30 01:08:07;;;;;;;22.00;19.15;;;;;;;;;;5074239;28;20238;-67
2022/09/30 01:10:35;;;;;;;21.25;19.10;;;;;;;;;;5073406;28;20194;-67
2022/09/30 01:13:02;;;;;;;19.60;17.70;;;;;;;;;;5073411;28;20197;-68
2022/09/30 01:15:36;;;;;;;21.55;18.25;;;;;;;;;;5073458;28;20554;-68
2022/09/30 01:18:06;;;;;;;20.25;18.25;;;;;;;;;;5073583;28;20237;-67
2022/09/30 01:21:03;;;;;;;22.52;19.55;;;;;;;;;;5073319;28;20208;-67
2022/09/30 01:23:42;;;;;;;21.85;19.63;;;;;;;;;;5030908;28;20606;-67
2022/09/30 01:26:20;;;;;;;18.45;16.63;;;;;;;;;;5066907;28;20196;-66
2022/09/30 01:28:57;;;;;;;20.73;18.52;;;;;;;;;;5073161;28;20189;-67
2022/09/30 01:31:29;;;;;;;22.08;19.60;;;;;;;;;;5073764;28;20191;-67
2022/09/30 01:33:58;;;;;;;23.02;19.48;;;;;;;;;;5072964;28;20187;-66
2022/09/30 01:36:30;;;;;;;20.63;18.52;;;;;;;;;;5072752;28;20658;-67
2022/09/30 01:39:01;;;;;;;21.17;18.33;;;;;;;;;;5073801;28;20297;-66
2022/09/30 01:41:34;;;;;;;23.48;20.83;;;;;;;;;;5073356;28;20542;-66
2022/09/30 01:44:04;;;;;;;24.13;20.10;;;;;;;;;;5073414;28;20215;-67
2022/09/30 01:46:36;;;;;;;21.45;19.20;;;;;;;;;;5072932;28;20560;-66
2022/09/30 01:49:08;;;;;;;21.05;18.15;;;;;;;;;;5072775;28;20639;-66
2022/09/30 01:51:39;;;;;;;20.98;18.08;;;;;;;;;;5073174;28;20539;-66
2022/09/30 01:54:09;;;;;;;21.42;19.30;;;;;;;;;;5073197;28;20193;-67
2022/09/30 01:56:39;;;;;;;21.15;18.92;;;;;;;;;;5072937;28;20283;-67
2022/09/30 01:59:08;;;;;;;20.92;18.50;;;;;;;;;;5073226;28;20570;-67
2022/09/30 02:01:40;;;;;;;19.70;17.70;;;;;;;;;;5073070;28;20193;-67
2022/09/30 02:04:09;;;;;;;19.70;17.55;;;;;;;;;;5073363;28;20193;-67
2022/09/30 02:06:38;;;;;;;25.00;18.08;;;;;;;;;;5072770;28;20198;-67
2022/09/30 02:09:07;;;;;;;20.27;18.20;;;;;;;;;;5072463;28;20295;-67
2022/09/30 02:11:36;;;;;;;19.48;17.45;;;;;;;;;;5072715;28;20192;-67
2022/09/30 02:14:05;;;;;;;20.65;17.98;;;;;;;;;;5072480;28;20197;-66
2022/09/30 02:16:35;;;;;;;18.85;17.00;;;;;;;;;;5072556;28;20256;-68
2022/09/30 02:19:09;;;;;;;20.20;17.75;;;;;;;;;;5072758;28;20626;-67
2022/09/30 02:21:39;;;;;;;22.42;19.55;;;;;;;;;;5072949;28;20197;-67
2022/09/30 02:24:08;;;;;;;24.65;18.15;;;;;;;;;;5073253;28;20255;-66
2022/09/30 02:26:38;;;;;;;20.77;18.58;;;;;;;;;;5072273;28;20204;-66
2022/09/30 02:29:07;;;;;;;20.63;18.63;;;;;;;;;;5072892;28;20228;-66
2022/09/30 02:31:37;;;;;;;19.65;17.52;;;;;;;;;;5072321;28;20196;-66
2022/09/30 02:34:08;;;;;;;22.70;20.25;;;;;;;;;;5072513;28;20531;-66
2022/09/30 02:36:39;;;;;;;19.92;17.45;;;;;;;;;;5072344;28;20180;-66
2022/09/30 02:39:08;;;;;;;25.05;19.15;;;;;;;;;;5072258;28;20217;-66
2022/09/30 02:41:38;;;;;;;19.80;17.70;;;;;;;;;;5072168;28;20198;-66
2022/09/30 02:44:05;;;;;;;20.42;18.23;;;;;;;;;;5072103;28;20200;-67
2022/09/30 02:46:35;;;;;;;24.27;18.65;;;;;;;;;;5072621;28;20192;-66
2022/09/30 02:49:05;;;;;;;21.13;18.10;;;;;;;;;;5072481;28;20558;-66
2022/09/30 02:51:38;;;;;;;19.88;17.67;;;;;;;;;;5072492;28;20206;-67
2022/09/30 02:54:13;;;;;;;19.50;17.60;;;;;;;;;;5072812;28;20545;-66
2022/09/30 02:56:45;;;;;;;21.55;19.30;;;;;;;;;;5076203;28;20215;-66
2022/09/30 02:59:13;;;;;;;21.60;19.38;;;;;;;;;;5075542;28;20695;-67
2022/09/30 03:01:40;;;;;;;20.65;18.50;;;;;;;;;;5065355;28;20247;-67
2022/09/30 03:04:09;;;;;;;21.92;19.15;;;;;;;;;;5070207;28;20201;-66
2022/09/30 03:06:38;;;;;;;24.85;18.90;;;;;;;;;;5058352;28;20204;-68
2022/09/30 03:09:05;;;;;;;22.27;18.48;;;;;;;;;;5075773;28;20288;-67
2022/09/30 03:11:33;;;;;;;19.23;17.23;;;;;;;;;;5070939;28;20194;-67
2022/09/30 03:14:16;;;;;;;21.65;17.83;;;;;;;;;;5055540;28;20193;-67
2022/09/30 03:16:53;;;;;;;20.58;18.23;;;;;;;;;;5055994;28;20542;-68
2022/09/30 03:19:27;;;;;;;21.83;19.05;;;;;;;;;;5055536;28;20236;-68
2022/09/30 03:22:04;;;;;;;21.42;18.75;;;;;;;;;;5074960;28;20183;-68
2022/09/30 03:24:36;;;;;;;23.83;18.70;;;;;;;;;;5075233;28;20192;-68
2022/09/30 03:27:07;;;;;;;20.90;17.90;;;;;;;;;;5076058;28;20189;-68
2022/09/30 03:29:39;;;;;;;19.15;17.25;;;;;;;;;;5075386;28;20194;-68
2022/09/30 03:32:11;;;;;;;26.92;18.25;;;;;;;;;;5075035;28;20189;-66
2022/09/30 03:34:45;;;;;;;28.20;20.35;;;;;;;;;;5075383;28;20189;-67
2022/09/30 03:37:18;;;;;;;21.50;18.75;;;;;;;;;;5075204;28;20188;-67
2022/09/30 03:39:52;;;;;;;22.88;18.60;;;;;;;;;;5054792;28;20216;-68
2022/09/30 03:42:20;;;;;;;20.05;17.70;;;;;;;;;;5054880;28;20651;-67
2022/09/30 03:44:55;;;;;;;22.17;19.90;;;;;;;;;;5055064;28;20227;-67
2022/09/30 03:47:23;;;;;;;22.13;19.02;;;;;;;;;;5055366;28;20198;-67
2022/09/30 03:49:53;;;;;;;21.15;18.85;;;;;;;;;;5054994;28;20559;-67
2022/09/30 03:52:23;;;;;;;22.95;17.75;;;;;;;;;;5055034;28;20282;-67
2022/09/30 03:54:52;;;;;;;24.42;19.38;;;;;;;;;;5054853;28;20200;-67
2022/09/30 03:57:19;;;;;;;22.08;18.42;;;;;;;;;;5068154;28;20201;-67
2022/09/30 03:59:46;;;;;;;21.42;18.00;;;;;;;;;;5074128;28;20225;-67
2022/09/30 04:02:14;;;;;;;20.00;17.95;;;;;;;;;;5060348;28;20384;-67
2022/09/30 04:04:41;;;;;;;20.38;18.08;;;;;;;;;;5054101;28;20194;-68
2022/09/30 04:07:09;;;;;;;30.05;17.30;;;;;;;;;;5054458;28;20200;-67
2022/09/30 04:09:37;;;;;;;19.27;17.27;;;;;;;;;;5054544;28;20201;-67
2022/09/30 04:12:05;;;;;;;20.13;16.63;;;;;;;;;;5054196;28;20646;-67
2022/09/30 04:14:33;;;;;;;19.98;17.63;;;;;;;;;;5054535;28;20218;-67
2022/09/30 04:17:00;;;;;;;19.00;17.05;;;;;;;;;;5054185;28;20238;-67
2022/09/30 04:19:27;;;;;;;23.13;17.65;;;;;;;;;;5054240;28;20231;-67
2022/09/30 04:21:55;;;;;;;21.73;18.08;;;;;;;;;;5053944;28;20192;-67
2022/09/30 04:24:22;;;;;;;21.83;16.90;;;;;;;;;;5054455;28;20197;-67
2022/09/30 04:26:51;;;;;;;23.98;17.85;;;;;;;;;;5064912;28;20504;-67
2022/09/30 04:29:18;;;;;;;28.05;18.10;;;;;;;;;;5074137;28;20204;-67
2022/09/30 04:31:46;;;;;;;28.27;16.75;;;;;;;;;;5073966;28;20205;-67
2022/09/30 04:34:13;;;;;;;23.77;19.08;;;;;;;;;;5073984;28;20201;-67
2022/09/30 04:36:41;;;;;;;18.58;16.60;;;;;;;;;;5073903;28;20225;-67
2022/09/30 04:39:08;;;;;;;23.10;17.85;;;;;;;;;;5073435;28;20329;-66
2022/09/30 04:41:35;;;;;;;21.83;18.05;;;;;;;;;;5073677;28;20203;-67
2022/09/30 04:44:05;;;;;;;21.02;18.48;;;;;;;;;;5073679;28;20228;-67
2022/09/30 04:46:35;;;;;;;22.98;18.52;;;;;;;;;;5073627;28;20222;-67
2022/09/30 04:49:03;;;;;;;23.95;17.70;;;;;;;;;;5073384;28;20208;-68
2022/09/30 04:51:30;;;;;;;22.00;18.52;;;;;;;;;;5073659;28;20205;-67
2022/09/30 04:53:57;;;;;;;19.33;17.30;;;;;;;;;;5073436;28;20200;-66
2022/09/30 04:56:25;;;;;;;21.83;18.33;;;;;;;;;;5073571;28;20194;-66
2022/09/30 04:58:52;;;;;;;20.13;17.83;;;;;;;;;;5073014;28;20233;-67
2022/09/30 05:01:21;;;;;;;25.58;18.08;;;;;;;;;;5073271;28;20196;-67
2022/09/30 05:03:49;;;;;;;19.13;17.27;;;;;;;;;;5057993;28;20212;-68
2022/09/30 05:06:17;;;;;;;22.17;18.23;;;;;;;;;;5053393;28;20201;-67
2022/09/30 05:08:44;;;;;;;19.77;17.65;;;;;;;;;;5053683;28;20227;-67
2022/09/30 05:11:16;;;;;;;20.75;18.25;;;;;;;;;;5053650;28;20197;-67
2022/09/30 05:13:43;;;;;;;24.13;18.77;;;;;;;;;;5053320;28;20196;-67
2022/09/30 05:16:11;;;;;;;23.58;18.65;;;;;;;;;;5052965;28;20207;-68
2022/09/30 05:18:41;;;;;;;21.17;16.80;;;;;;;;;;5052755;28;20218;-67
2022/09/30 05:21:09;;;;;;;19.38;17.48;;;;;;;;;;5052905;28;20234;-70
2022/09/30 05:23:36;;;;;;;22.00;18.98;;;;;;;;;;5053358;28;20195;-66
2022/09/30 05:26:03;;;;;;;25.00;20.05;;;;;;;;;;5053017;28;20286;-67
2022/09/30 05:28:31;;;;;;;22.63;17.77;;;;;;;;;;5052977;28;20196;-66
2022/09/30 05:30:59;;;;;;;23.67;17.90;;;;;;;;;;5053209;28;20196;-67
2022/09/30 05:33:33;;;;;;;19.75;17.63;;;;;;;;;;5052844;28;20656;-67
2022/09/30 05:36:02;;;;;;;20.38;17.05;;;;;;;;;;5052967;28;20189;-66
2022/09/30 05:38:30;;;;;;;19.40;16.80;;;;;;;;;;5053003;28;20246;-67
2022/09/30 05:40:57;;;;;;;22.55;17.73;;;;;;;;;;5052992;28;20223;-67
2022/09/30 05:43:25;;;;;;;26.45;18.48;;;;;;;;;;5053151;28;20616;-66
2022/09/30 05:45:53;;;;;;;26.25;18.52;;;;;;;;;;5052541;28;20288;-67
2022/09/30 05:48:20;;;;;;;21.42;19.13;;;;;;;;;;5053050;28;20222;-66
2022/09/30 05:50:49;;;;;;;22.23;16.75;;;;;;;;;;5052559;28;20226;-66
2022/09/30 05:53:18;;;;;;;18.88;15.95;;;;;;;;;;5053278;28;20564;-66
2022/09/30 05:55:46;;;;;;;21.17;17.98;;;;;;;;;;5052788;28;20208;-66
2022/09/30 05:58:13;;;;;;;19.42;17.45;;;;;;;;;;5052785;28;20204;-67
2022/09/30 06:00:41;;;;;;;21.40;17.55;;;;;;;;;;5052812;28;20715;-66
2022/09/30 06:03:09;;;;;;;22.45;18.60;;;;;;;;;;5052898;28;20196;-66
2022/09/30 06:05:36;;;;;;;25.80;17.38;;;;;;;;;;5052793;28;20197;-66
2022/09/30 06:08:05;;;;;;;21.50;18.00;;;;;;;;;;5052556;28;20206;-66
2022/09/30 06:10:35;;;;;;;19.20;17.23;;;;;;;;;;5052706;28;20206;-66
2022/09/30 06:13:03;;;;;;;22.02;17.55;;;;;;;;;;5052754;28;20200;-66
2022/09/30 06:15:30;;;;;;;20.02;16.67;;;;;;;;;;5052711;28;20200;-67
2022/09/30 06:17:58;;;;;;;23.80;16.13;;;;;;;;;;5052525;28;20242;-66
2022/09/30 06:20:25;;;;;;;20.88;16.73;;;;;;;;;;5052771;28;20220;-67
2022/09/30 06:22:53;;;;;;;19.38;16.38;;;;;;;;;;5052770;28;20204;-66
2022/09/30 06:25:21;;;;;;;17.83;16.02;;;;;;;;;;5053204;28;20318;-67
2022/09/30 06:27:49;;;;;;;20.85;16.40;;;;;;;;;;5052430;28;20197;-67
2022/09/30 06:30:17;;;;;;;21.42;16.90;;;;;;;;;;5056523;28;20203;-66
2022/09/30 06:32:44;;;;;;;21.00;17.83;;;;;;;;;;5056560;28;20210;-66
2022/09/30 06:35:11;;;;;;;19.52;16.77;;;;;;;;;;5056401;28;20200;-67
2022/09/30 06:37:40;;;;;;;18.40;16.48;;;;;;;;;;5056838;28;20200;-66
2022/09/30 06:40:08;;;;;;;19.88;16.00;;;;;;;;;;5056421;28;20227;-67
2022/09/30 06:42:35;;;;;;;21.27;16.92;;;;;;;;;;5056060;28;20192;-67
2022/09/30 06:45:04;;;;;;;20.10;17.55;;;;;;;;;;5056160;28;20196;-67
2022/09/30 06:47:32;;;;;;;21.85;17.05;;;;;;;;;;5056248;28;20764;-66
2022/09/30 06:49:59;;;;;;;20.90;17.55;;;;;;;;;;5055847;28;20205;-66
2022/09/30 06:52:26;;;;;;;18.88;14.40;;;;;;;;;;5055693;28;20201;-67
2022/09/30 06:54:55;;;;;;;17.38;15.43;;;;;;;;;;5056507;28;20198;-66
2022/09/30 06:57:23;;;;;;;17.77;15.13;;;;;;;;;;5055971;28;20259;-67
2022/09/30 06:59:53;;;;;;;19.23;14.55;;;;;;;;;;5055785;28;20267;-67
2022/09/30 07:02:22;;;;;;;24.40;15.23;;;;;;;;;;5056005;28;20230;-67
2022/09/30 07:04:49;;;;;;;18.20;15.10;;;;;;;;;;5055909;28;20211;-66
2022/09/30 07:07:21;;;;;;;19.92;14.25;;;;;;;;;;5055618;28;20201;-67
2022/09/30 07:09:48;;;;;;;16.20;14.50;;;;;;;;;;5056263;28;20196;-67
2022/09/30 07:12:16;;;;;;;18.08;15.20;;;;;;;;;;5055422;28;20206;-67
2022/09/30 07:14:43;;;;;;;22.38;15.90;;;;;;;;;;5055719;28;20194;-66
2022/09/30 07:17:10;;;;;;;17.50;14.35;;;;;;;;;;5055272;28;20226;-66
2022/09/30 07:19:39;;;;;;;17.55;13.77;;;;;;;;;;5055300;28;20230;-66
2022/09/30 07:24:51;;;;;;;16.13;14.43;;;;;;;;;;5055421;28;20308;-67
2022/09/30 07:27:18;;;;;;;21.67;14.40;;;;;;;;;;5055381;28;20203;-67
2022/09/30 07:29:45;;;;;;;16.70;14.90;;;;;;;;;;5055576;28;20205;-66
2022/09/30 07:32:12;;;;;;;24.90;16.50;;;;;;;;;;5055240;28;20197;-66
2022/09/30 07:34:43;;;;;;;16.40;14.60;;;;;;;;;;5055215;28;20286;-67
2022/09/30 07:37:11;;;;;;;15.20;13.60;;;;;;;;;;5055301;28;20186;-66
2022/09/30 07:39:38;;;;;;;16.55;14.50;;;;;;;;;;5054348;28;20686;-67
2022/09/30 07:42:05;;;;;;;22.67;16.30;;;;;;;;;;5054519;28;20200;-66
2022/09/30 07:44:33;;;;;;;18.58;14.60;;;;;;;;;;5055081;28;20201;-67
2022/09/30 07:47:01;;;;;;;19.40;15.93;;;;;;;;;;5055086;28;20198;-67
2022/09/30 07:49:28;;;;;;;20.90;14.90;;;;;;;;;;5054948;28;20213;-66
2022/09/30 07:51:58;;;;;;;25.48;16.15;;;;;;;;;;5054621;28;20203;-66
2022/09/30 07:54:26;;;;;;;21.30;15.43;;;;;;;;;;5055420;28;20198;-66
2022/09/30 07:56:54;;;;;;;18.42;16.23;;;;;;;;;;5054830;28;20281;-66
2022/09/30 07:59:21;;;;;;;20.00;16.70;;;;;;;;;;5054813;28;20217;-67
2022/09/30 08:01:49;;;;;;;18.20;15.15;;;;;;;;;;5055219;28;20197;-67
2022/09/30 08:04:17;;;;;;;19.30;16.92;;;;;;;;;;5054427;28;20198;-66
2022/09/30 08:06:45;;;;;;;22.55;16.15;;;;;;;;;;5054936;28;20193;-67
2022/09/30 08:09:14;;;;;;;21.17;16.75;;;;;;;;;;5054559;28;20201;-66
2022/09/30 08:11:42;;;;;;;23.35;17.58;;;;;;;;;;5054196;28;20191;-67
2022/09/30 08:14:14;;;;;;;19.50;16.15;;;;;;;;;;5054528;28;20196;-66
2022/09/30 08:16:41;;;;;;;21.65;16.45;;;;;;;;;;5053869;28;20225;-67
2022/09/30 08:19:08;;;;;;;22.63;15.93;;;;;;;;;;5054187;28;20654;-67
2022/09/30 08:21:35;;;;;;;19.05;16.13;;;;;;;;;;5053937;28;20656;-67
2022/09/30 08:24:04;;;;;;;20.58;17.42;;;;;;;;;;5054362;28;20217;-67
2022/09/30 08:26:32;;;;;;;22.02;15.20;;;;;;;;;;5054643;28;20195;-67
2022/09/30 08:29:00;;;;;;;18.83;16.30;;;;;;;;;;5054243;28;20214;-66
2022/09/30 08:31:28;;;;;;;23.42;15.05;;;;;;;;;;5054435;28;20198;-67
2022/09/30 08:33:56;;;;;;;19.38;16.77;;;;;;;;;;5054643;28;20207;-67
2022/09/30 08:36:23;;;;;;;17.20;15.38;;;;;;;;;;5054644;28;20245;-67
2022/09/30 08:38:51;;;;;;;25.45;17.70;;;;;;;;;;5053861;28;20531;-66
2022/09/30 08:41:23;;;;;;;17.48;15.00;;;;;;;;;;5053541;28;20249;-67
2022/09/30 08:44:00;;;;;;;18.50;15.82;;;;;;;;;;5053811;28;20187;-67
2022/09/30 08:46:32;;;;;;;20.55;16.58;;;;;;;;;;5054120;28;20209;-66
2022/09/30 08:49:02;;;;;;;19.43;15.30;;;;;;;;;;5053709;28;20625;-66
2022/09/30 08:51:32;;;;;;;19.20;16.17;;;;;;;;;;5054450;28;20469;-67
2022/09/30 08:54:02;;;;;;;17.60;15.80;;;;;;;;;;5053765;28;20479;-67
2022/09/30 08:56:31;;;;;;;22.00;16.70;;;;;;;;;;5053480;28;20930;-67
2022/09/30 08:59:01;;;;;;;16.40;14.70;;;;;;;;;;5053274;28;20446;-67
2022/09/30 09:01:31;;;;;;;19.10;15.20;;;;;;;;;;5053303;28;20483;-66
2022/09/30 09:03:59;;;;;;;17.23;15.37;;;;;;;;;;5053332;28;20933;-66
2022/09/30 09:06:29;;;;;;;26.40;15.97;;;;;;;;;;5053609;28;20441;-67
2022/09/30 09:09:04;;;;;;;20.63;14.75;;;;;;;;;;5053805;28;20440;-67
2022/09/30 09:11:39;;;;;;;16.57;14.00;;;;;;;;;;5054018;28;20285;-66
2022/09/30 09:14:12;;;;;;;17.77;15.70;;;;;;;;;;5053446;28;20425;-67
2022/09/30 09:16:43;;;;;;;16.37;14.77;;;;;;;;;;5053006;28;20962;-68
2022/09/30 09:19:11;;;;;;;17.97;14.90;;;;;;;;;;5052965;28;20907;-67
2022/09/30 09:21:44;;;;;;;22.80;15.27;;;;;;;;;;5052923;28;20504;-67
2022/09/30 09:24:14;;;;;;;24.43;15.20;;;;;;;;;;5053329;28;20441;-66
2022/09/30 09:26:42;;;;;;;17.10;15.30;;;;;;;;;;5053061;28;20946;-66
2022/09/30 09:29:18;;;;;;;18.23;13.57;;;;;;;;;;5053191;28;20927;-66
2022/09/30 09:31:47;;;;;;;15.77;14.17;;;;;;;;;;5053344;28;20444;-67
2022/09/30 09:34:14;;;;;;;16.80;15.10;;;;;;;;;;5053189;28;20452;-66
2022/09/30 09:36:52;;;;;;;19.57;14.70;;;;;;;;;;5053218;28;20442;-67
2022/09/30 09:39:28;;;;;;;15.80;14.20;;;;;;;;;;5053268;28;20435;-67
2022/09/30 09:42:00;;;;;;;17.60;14.73;;;;;;;;;;5053271;28;20428;-67
2022/09/30 09:44:31;;;;;;;15.77;14.13;;;;;;;;;;5053060;28;20891;-67
2022/09/30 09:47:04;;;;;;;15.47;13.93;;;;;;;;;;5053444;28;20449;-66
2022/09/30 09:49:36;;;;;;;23.13;14.63;;;;;;;;;;5052635;28;20535;-67
2022/09/30 09:52:23;;;;;;;16.60;14.90;;;;;;;;;;5053238;28;20453;-67
2022/09/30 09:54:51;;;;;;;17.33;12.80;;;;;;;;;;5052491;28;20441;-67
2022/09/30 09:57:23;;;;;;;15.83;13.90;;;;;;;;;;5052912;28;20634;-67
2022/09/30 09:59:59;;;;;;;19.13;14.57;;;;;;;;;;5052867;28;20473;-67
2022/09/30 10:02:27;;;;;;;13.13;11.73;;;;;;;;;;5052553;28;20972;-67
2022/09/30 10:05:02;;;;;;;14.70;13.20;;;;;;;;;;5056288;28;20437;-67
2022/09/30 10:07:29;;;;;;;17.73;13.27;;;;;;;;;;5056675;28;20441;-67
2022/09/30 10:10:07;;;;;;;14.47;13.07;;;;;;;;;;5056422;28;20453;-67
2022/09/30 10:12:35;;;;;;;14.67;13.23;;;;;;;;;;5057303;28;20782;-67
2022/09/30 10:15:05;;;;;;;13.43;11.63;;;;;;;;;;5056731;28;20438;-66
2022/09/30 10:17:33;;;;;;;14.10;12.60;;;;;;;;;;5056166;28;20488;-66
2022/09/30 10:20:04;;;;;;;14.00;12.60;;;;;;;;;;5056530;28;20531;-67
2022/09/30 10:22:32;;;;;;;15.33;11.53;;;;;;;;;;5056688;28;20429;-67
2022/09/30 10:25:17;;;;;;;15.80;11.83;;;;;;;;;;5056529;28;20453;-67
2022/09/30 10:27:49;;;;;;;13.63;11.97;;;;;;;;;;5056640;28;20887;-66
2022/09/30 10:30:31;;;;;;;15.10;13.50;;;;;;;;;;5056084;28;20976;-67
2022/09/30 10:33:02;;;;;;;17.63;13.50;;;;;;;;;;5056842;28;20440;-67
2022/09/30 10:35:29;;;;;;;14.90;12.50;;;;;;;;;;5056838;28;20438;-66
2022/09/30 10:37:58;;;;;;;12.70;11.50;;;;;;;;;;5056393;28;20953;-67
2022/09/30 10:40:27;;;;;;;17.77;11.63;;;;;;;;;;5056126;28;20524;-67
2022/09/30 10:42:55;;;;;;;16.50;11.00;;;;;;;;;;5056273;28;20441;-67
2022/09/30 10:45:24;;;;;;;13.03;11.57;;;;;;;;;;5056091;28;20522;-67
2022/09/30 10:47:53;;;;;;;16.00;12.23;;;;;;;;;;5056328;28;20537;-67
2022/09/30 10:50:23;;;;;;;13.13;11.67;;;;;;;;;;5056067;28;20545;-67
2022/09/30 10:52:54;;;;;;;13.27;11.00;;;;;;;;;;5056421;28;20434;-67
2022/09/30 10:55:29;;;;;;;14.13;12.17;;;;;;;;;;5055755;28;20923;-67
2022/09/30 10:57:58;;;;;;;15.90;11.90;;;;;;;;;;5056266;28;20469;-66
2022/09/30 11:00:26;;;;;;;15.20;13.70;;;;;;;;;;5055483;28;20994;-68
2022/09/30 11:02:57;;;;;;;18.43;12.77;;;;;;;;;;5055909;28;20441;-67
2022/09/30 11:05:28;;;;;;;15.20;12.53;;;;;;;;;;5056247;28;20427;-66
2022/09/30 11:07:58;;;;;;;18.67;14.80;;;;;;;;;;5055804;28;20445;-66
2022/09/30 11:10:32;;;;;;;16.57;12.87;;;;;;;;;;5055464;28;20535;-67
2022/09/30 11:13:02;;;;;;;16.00;13.33;;;;;;;;;;5056093;28;20432;-66
2022/09/30 11:15:32;;;;;;;13.70;12.37;;;;;;;;;;5054374;28;20437;-66
2022/09/30 11:18:01;;;;;;;15.90;13.73;;;;;;;;;;5055869;28;20809;-66
2022/09/30 11:20:32;;;;;;;15.90;13.20;;;;;;;;;;5055400;28;20485;-66
2022/09/30 11:23:02;;;;;;;13.87;12.43;;;;;;;;;;5055497;28;20444;-66
2022/09/30 11:25:35;;;;;;;15.87;13.80;;;;;;;;;;5055503;28;20446;-66
2022/09/30 11:28:12;;;;;;;16.93;12.90;;;;;;;;;;5056272;28;20441;-67
2022/09/30 11:30:43;;;;;;;13.43;12.03;;;;;;;;;;5055280;28;20444;-67
2022/09/30 11:33:18;;;;;;;15.93;11.93;;;;;;;;;;5055437;28;20450;-67
2022/09/30 11:35:52;;;;;;;12.57;11.27;;;;;;;;;;5054894;28;20912;-67
2022/09/30 11:38:26;;;;;;;14.17;11.80;;;;;;;;;;5054885;28;20522;-66
2022/09/30 11:40:58;;;;;;;12.63;11.43;;;;;;;;;;5055058;28;20914;-66
2022/09/30 11:43:38;;;;;;;12.03;10.93;;;;;;;;;;5054880;28;20437;-66
2022/09/30 11:46:15;;;;;;;11.63;10.43;;;;;;;;;;5054960;28;20450;-66
2022/09/30 11:48:58;;;;;;;12.87;10.90;;;;;;;;;;5055247;28;20977;-66
2022/09/30 11:51:32;;;;;;;11.70;10.50;;;;;;;;;;5055248;28;20440;-66
2022/09/30 11:54:06;;;;;;;10.93;9.70;;;;;;;;;;5054724;28;20431;-67
2022/09/30 11:56:39;;;;;;;10.30;9.30;;;;;;;;;;5054654;28;20436;-66
2022/09/30 11:59:08;;;;;;;10.70;9.00;;;;;;;;;;5054876;28;20437;-66
2022/09/30 12:01:37;;;;;;;8.93;8.03;;;;;;;;;;5054356;28;20603;-66
2022/09/30 12:04:08;;;;;;;12.17;8.33;;;;;;;;;;5054990;28;20478;-66
2022/09/30 12:06:39;;;;;;;9.00;8.10;;;;;;;;;;5054686;28;20432;-66
2022/09/30 12:09:15;;;;;;;8.23;7.53;;;;;;;;;;5054961;28;20845;-67
2022/09/30 12:11:45;;;;;;;9.20;8.40;;;;;;;;;;5054649;28;20447;-66
2022/09/30 12:14:15;;;;;;;9.03;8.33;;;;;;;;;;5054298;28;20438;-67
2022/09/30 12:16:43;;;;;;;8.90;8.20;;;;;;;;;;5054368;28;20571;-67
2022/09/30 12:19:15;;;;;;;10.10;9.10;;;;;;;;;;5055400;28;20776;-67
2022/09/30 12:21:47;;;;;;;8.70;7.90;;;;;;;;;;5054044;28;20475;-67
2022/09/30 12:24:18;;;;;;;8.83;7.93;;;;;;;;;;5054718;28;20431;-66
2022/09/30 12:26:46;;;;;;;8.30;7.57;;;;;;;;;;5054009;28;20806;-66
2022/09/30 12:32:11;;;;;;;9.83;7.80;;;;;;;;;;5054470;28;20480;-66
2022/09/30 12:34:47;;;;;;;12.90;9.77;;;;;;;;;;5053788;28;20440;-67
2022/09/30 12:37:30;;;;;;;11.93;7.13;;;;;;;;;;5054391;28;20515;-67
2022/09/30 12:40:08;;;;;;;7.43;6.83;;;;;;;;;;5053801;28;20441;-67
2022/09/30 12:42:50;;;;;;;6.97;6.27;;;;;;;;;;5053773;28;20523;-66
2022/09/30 12:45:35;;;;;;;8.43;7.63;;;;;;;;;;5045497;28;20488;-66
2022/09/30 12:48:05;;;;;;;10.47;7.97;;;;;;;;;;5053692;28;20447;-67
2022/09/30 12:50:35;;;;;;;7.10;6.40;;;;;;;;;;5054083;28;20433;-66
2022/09/30 12:53:10;;;;;;;6.73;6.23;;;;;;;;;;5053792;28;20465;-66
2022/09/30 12:55:39;;;;;;;6.53;5.93;;;;;;;;;;5053865;28;20436;-70
2022/09/30 12:58:08;;;;;;;6.90;6.30;;;;;;;;;;5063394;28;20459;-69
2022/09/30 13:00:36;;;;;;;10.87;6.97;;;;;;;;;;5073072;28;20805;-68
2022/09/30 13:03:06;;;;;;;8.70;6.93;;;;;;;;;;5072906;28;20440;-67
2022/09/30 13:05:48;;;;;;;8.17;7.23;;;;;;;;;;5073367;28;20446;-65
2022/09/30 13:08:25;;;;;;;7.93;7.20;;;;;;;;;;5073308;28;20465;-64
2022/09/30 13:10:57;;;;;;;8.00;6.40;;;;;;;;;;5073518;28;20454;-67
2022/09/30 13:13:25;;;;;;;6.43;5.83;;;;;;;;;;5073252;28;20436;-67
2022/09/30 13:15:53;;;;;;;6.27;5.73;;;;;;;;;;5073002;28;20457;-67
2022/09/30 13:18:39;;;;;;;6.63;5.37;;;;;;;;;;5074067;28;20476;-67
2022/09/30 13:21:33;;;;;;;6.07;5.50;;;;;;;;;;5072946;28;20483;-67
2022/09/30 13:24:04;;;;;;;6.10;5.60;;;;;;;;;;5048852;28;20439;-67
2022/09/30 13:26:55;;;;;;;5.80;5.20;;;;;;;;;;5072855;28;20440;-67
2022/09/30 13:29:43;;;;;;;6.43;5.30;;;;;;;;;;5058077;28;20985;-68
2022/09/30 13:32:10;;;;;;;4.70;4.30;;;;;;;;;;5068025;28;20539;-67
2022/09/30 13:34:52;;;;;;;5.03;4.63;;;;;;;;;;5071318;28;20539;-66
2022/09/30 13:37:34;;;;;;;5.83;4.67;;;;;;;;;;5070727;28;20492;-67
2022/09/30 13:40:05;;;;;;;6.77;5.20;;;;;;;;;;5072387;28;20464;-67
2022/09/30 13:42:34;;;;;;;5.30;4.80;;;;;;;;;;5072835;28;20865;-67
2022/09/30 13:45:05;;;;;;;9.03;4.20;;;;;;;;;;5072755;28;20447;-67
2022/09/30 13:47:34;;;;;;;6.90;4.57;;;;;;;;;;5072798;28;20477;-67
2022/09/30 13:50:07;;;;;;;5.17;4.77;;;;;;;;;;5072612;28;20512;-66
2022/09/30 13:52:37;;;;;;;4.40;4.00;;;;;;;;;;5072991;28;20492;-67
2022/09/30 13:55:09;;;;;;;6.17;4.17;;;;;;;;;;5072588;28;20483;-66
2022/09/30 13:57:44;;;;;;;5.33;4.40;;;;;;;;;;5072636;28;20843;-66
2022/09/30 14:00:14;;;;;;;5.97;4.60;;;;;;;;;;5072133;28;20537;-66
2022/09/30 14:02:47;;;;;;;4.83;3.87;;;;;;;;;;5071879;28;20785;-65
2022/09/30 14:05:30;;;;;;;4.20;3.90;;;;;;;;;;5072217;28;20432;-66
2022/09/30 14:08:08;;;;;;;5.33;3.83;;;;;;;;;;5072690;28;20443;-66
2022/09/30 14:10:43;;;;;;;5.03;4.53;;;;;;;;;;5072608;28;20451;-66
2022/09/30 14:13:18;;;;;;;4.60;3.93;;;;;;;;;;5071547;28;20440;-66
2022/09/30 14:15:57;;;;;;;4.70;4.30;;;;;;;;;;5072706;28;20538;-66
2022/09/30 14:18:33;;;;;;;6.80;3.43;;;;;;;;;;5072688;28;20568;-66
2022/09/30 14:21:19;;;;;;;5.37;4.80;;;;;;;;;;5072160;28;20447;-65
2022/09/30 14:23:47;;;;;;;5.63;3.90;;;;;;;;;;5072765;28;20471;-66
2022/09/30 14:26:27;;;;;;;5.90;3.90;;;;;;;;;;5072548;28;20441;-66
2022/09/30 14:28:57;;;;;;;5.83;5.17;;;;;;;;;;5072121;28;20961;-65
2022/09/30 14:31:25;;;;;;;4.93;4.43;;;;;;;;;;5072429;28;20445;-66
2022/09/30 14:33:52;;;;;;;9.17;4.10;;;;;;;;;;5071955;28;20455;-65
2022/09/30 14:36:21;;;;;;;4.97;3.97;;;;;;;;;;5072140;28;20434;-67
2022/09/30 14:38:50;;;;;;;5.97;3.87;;;;;;;;;;5072200;28;20442;-65
2022/09/30 14:41:20;;;;;;;5.03;3.77;;;;;;;;;;5072218;28;20439;-66
2022/09/30 14:43:49;;;;;;;4.13;3.73;;;;;;;;;;5072641;28;20439;-66
2022/09/30 14:46:25;;;;;;;9.57;4.40;;;;;;;;;;5071925;28;20451;-66